Terminal Aerodrome Forecast
Issued by NWS Springfield, MO

Home | Current Version | Previous Version | Text Only | Print | Product List | Glossary On
Versions: 1 2 3 4 5 6 7 8 9 10 11 12 13 14 15 16 17 18 19 20 21
000
FTUS43 KSGF 261300 AAA
TAFSGF
TAF AMD
KSGF 261344Z 2614/2712 16013KT P6SM SCT035 BKN200 WS020/22045KT
     FM261600 17014KT P6SM BKN030
     FM261800 17014KT P6SM OVC020
     FM270000 16013KT P6SM -DZ BKN010 OVC020
     FM270200 17012KT 4SM -RADZ BR OVC006
     FM270600 21010KT 2SM -RADZ BR OVC004=

USA.gov is the U.S. government's official web portal to all federal, state and local government web resources and services.